This is the latest recevied weather packets stored in our database for station/object K0VSC-1. If no packets are shown the sender has not sent any weather packets the latest 1 day(s).
| Time | Temp. | Humidity | Pressure | Rain* | Wind** | Luminosity | Snow |
|---|---|---|---|---|---|---|---|
| 1778097483 | 5° C | 51% | 1017 hPa | 0 mm | - | 309 W/m² | - |
| 1778097183 | 4.44° C | 51% | 1017.1 hPa | 0 mm | - | 345 W/m² | - |
| 1778096883 | 5° C | 51% | 1017 hPa | 0 mm | - | 299 W/m² | - |
| 1778096583 | 5° C | 51% | 1017 hPa | 0 mm | - | 323 W/m² | - |
| 1778095983 | 5° C | 50% | 1017.1 hPa | 0 mm | - | 432 W/m² | - |
| 1778095683 | 4.44° C | 53% | 1017.1 hPa | 0 mm | - | 464 W/m² | - |
| 1778095383 | 4.44° C | 51% | 1017 hPa | 0 mm | - | 496 W/m² | - |
| 1778095083 | 4.44° C | 52% | 1017 hPa | 0 mm | - | 490 W/m² | - |
| 1778094783 | 4.44° C | 53% | 1017 hPa | 0 mm | - | 429 W/m² | - |
| 1778094483 | 4.44° C | 52% | 1017 hPa | 0 mm | - | 378 W/m² | - |
| 1778094183 | 4.44° C | 53% | 1016.9 hPa | 0 mm | - | 550 W/m² | - |
| 1778093883 | 4.44° C | 52% | 1016.9 hPa | 0 mm | - | 487 W/m² | - |
| 1778093583 | 4.44° C | 52% | 1017 hPa | 0 mm | - | 429 W/m² | - |
| 1778092983 | 4.44° C | 53% | 1017.1 hPa | 0 mm | - | 425 W/m² | - |
| 1778092683 | 3.89° C | 55% | 1017.1 hPa | 0 mm | - | 455 W/m² | - |
| 1778089083 | 3.33° C | 56% | 1017.6 hPa | 0 mm | - | 355 W/m² | - |
| 1778076484 | 1.67° C | 61% | 1017.9 hPa | 0 mm | - | 111 W/m² | - |
| 1778066284 | -0.56° C | 75% | 1016.3 hPa | 0 mm | - | 11 W/m² | - |
| 1778065984 | -0.56° C | 74% | 1016.3 hPa | 0 mm | - | 7 W/m² | - |
| 1778065684 | -0.56° C | 74% | 1016.4 hPa | 0 mm | - | 5 W/m² | - |
| 1778065384 | -1.11° C | 75% | 1016.4 hPa | 0 mm | - | 0 W/m² | - |
| 1778065084 | -1.11° C | 75% | 1016.3 hPa | 0 mm | - | 0 W/m² | - |
| 1778064784 | -1.11° C | 75% | 1016.3 hPa | 0 mm | - | 0 W/m² | - |
| 1778064484 | -1.11° C | 75% | 1016.2 hPa | 0 mm | - | 0 W/m² | - |
| 1778064184 | -1.11° C | 75% | 1016.2 hPa | 0 mm | - | 0 W/m² | - |
* Rain latest hour (hover to see other rain measurements)
** Current wind speed in m/s (hover to see current wind gust speed)